createdAt,value
2019-06-07T00:01:24.062Z,60.21
2019-06-07T00:03:54.207Z,60.01
2019-06-07T00:06:25.688Z,60.15
2019-06-07T00:08:56.133Z,60.36
2019-06-07T00:11:26.122Z,60.43
2019-06-07T00:13:57.751Z,60.38
2019-06-07T00:16:27.801Z,60.51
2019-06-07T00:18:57.951Z,60.75
2019-06-07T00:22:12.843Z,60.82
2019-06-07T00:23:59.653Z,60.84
2019-06-07T00:26:29.696Z,60.76
2019-06-07T00:28:59.776Z,60.60
2019-06-07T00:31:29.757Z,60.50
2019-06-07T00:33:59.857Z,60.45
2019-06-07T00:36:29.835Z,60.29
2019-06-07T00:39:01.235Z,60.37
2019-06-07T00:41:32.885Z,60.33
2019-06-07T00:44:02.894Z,60.32
2019-06-07T00:46:32.955Z,60.20
2019-06-07T00:49:02.970Z,60.15
2019-06-07T00:51:49.604Z,60.06
2019-06-07T00:54:04.676Z,59.87
2019-06-07T00:56:34.654Z,59.90
2019-06-07T00:59:11.400Z,59.76
2019-06-07T01:01:36.477Z,59.70
2019-06-07T01:04:06.465Z,59.58
2019-06-07T01:06:36.566Z,59.53
2019-06-07T01:09:08.962Z,59.41
2019-06-07T01:11:39.051Z,59.43
2019-06-07T01:14:09.111Z,59.48
2019-06-07T01:16:56.674Z,59.67
2019-06-07T01:19:10.842Z,59.76
2019-06-07T01:21:40.862Z,60.00
2019-06-07T01:24:12.497Z,60.13
2019-06-07T01:26:42.563Z,60.28
2019-06-07T01:29:12.552Z,60.38
2019-06-07T01:31:44.205Z,60.53
2019-06-07T01:34:14.339Z,60.70
2019-06-07T01:36:44.426Z,60.80
2019-06-07T01:39:14.419Z,61.09
2019-06-07T01:41:44.527Z,61.53
2019-06-07T01:44:14.561Z,61.41
2019-06-07T01:46:44.536Z,61.57
2019-06-07T01:49:14.558Z,61.77
2019-06-07T01:51:44.614Z,61.73
2019-06-07T01:54:49.215Z,62.19
2019-06-07T01:56:46.332Z,62.49
2019-06-07T01:59:17.785Z,62.85
2019-06-07T02:01:47.837Z,63.15
2019-06-07T02:04:21.584Z,63.30
2019-06-07T02:06:49.560Z,63.38
2019-06-07T02:09:20.877Z,63.51
2019-06-07T02:11:51.101Z,63.58
2019-06-07T02:14:25.350Z,63.43
2019-06-07T02:16:52.833Z,63.50
2019-06-07T02:19:24.292Z,63.42
2019-06-07T02:21:54.374Z,63.82
2019-06-07T02:24:25.251Z,63.79
2019-06-07T02:26:57.231Z,63.48
2019-06-07T02:29:30.275Z,63.35
2019-06-07T02:31:58.920Z,63.61
2019-06-07T02:34:35.897Z,64.00
2019-06-07T02:37:00.688Z,64.30
2019-06-07T02:39:36.837Z,64.36
2019-06-07T02:42:02.304Z,64.36
2019-06-07T02:44:38.530Z,64.33
2019-06-07T02:47:04.064Z,65.25
2019-06-07T02:49:40.468Z,65.06
2019-06-07T02:52:05.826Z,65.14
2019-06-07T02:54:39.634Z,65.26
2019-06-07T02:57:07.508Z,65.12
2019-06-07T03:00:04.430Z,65.07
2019-06-07T03:02:10.777Z,64.63
2019-06-07T03:04:44.727Z,64.61
2019-06-07T03:07:14.961Z,64.70
2019-06-07T03:09:47.072Z,64.72
2019-06-07T03:12:19.974Z,64.61
2019-06-07T03:14:51.391Z,64.86
2019-06-07T03:17:30.466Z,65.06
2019-06-07T03:20:03.463Z,64.94
2019-06-07T03:22:39.837Z,64.74
2019-06-07T03:25:07.803Z,65.36
2019-06-07T03:27:46.516Z,65.33
2019-06-07T03:30:36.258Z,64.99
2019-06-07T03:32:47.434Z,64.78
2019-06-07T03:35:14.227Z,65.07
2019-06-07T03:37:44.279Z,65.21
2019-06-07T03:40:14.294Z,65.26
2019-06-07T03:42:44.278Z,65.27
2019-06-07T03:45:14.417Z,65.17
2019-06-07T03:47:44.466Z,65.12
2019-06-07T03:50:15.453Z,65.07
2019-06-07T03:52:45.433Z,65.03
2019-06-07T03:55:15.457Z,65.04
2019-06-07T03:58:30.046Z,65.42
2019-06-07T04:00:17.385Z,65.77
2019-06-07T04:02:48.434Z,65.75
2019-06-07T04:05:18.455Z,65.64
2019-06-07T04:07:48.669Z,65.55
2019-06-07T04:10:18.782Z,65.53
2019-06-07T04:12:48.798Z,65.34
2019-06-07T04:15:18.787Z,65.35
2019-06-07T04:18:01.366Z,65.17
2019-06-07T04:20:20.998Z,65.07
2019-06-07T04:22:51.016Z,65.25
2019-06-07T04:25:21.001Z,65.70
2019-06-07T04:27:51.316Z,65.98
2019-06-07T04:30:37.280Z,65.54
2019-06-07T04:33:08.581Z,65.37
2019-06-07T04:35:42.874Z,65.21
2019-06-07T04:38:14.161Z,64.77
2019-06-07T04:40:47.047Z,64.46
2019-06-07T04:43:17.317Z,64.13
2019-06-07T04:45:51.531Z,63.48
2019-06-07T04:48:21.610Z,62.34
2019-06-07T04:50:52.852Z,62.03
2019-06-07T04:53:22.861Z,61.27
2019-06-07T04:55:52.873Z,60.78
2019-06-07T04:58:22.896Z,60.26
2019-06-07T05:00:59.120Z,59.92
2019-06-07T05:03:24.797Z,59.63
2019-06-07T05:05:54.853Z,59.25
2019-06-07T05:08:28.509Z,59.30
2019-06-07T05:10:56.574Z,59.03
2019-06-07T05:13:26.639Z,58.79
2019-06-07T05:15:56.582Z,58.85
2019-06-07T05:18:26.605Z,58.79
2019-06-07T05:20:56.678Z,58.55
2019-06-07T05:24:03.108Z,58.50
2019-06-07T05:25:58.449Z,58.42
2019-06-07T05:28:28.546Z,58.39
2019-06-07T05:31:04.716Z,58.20
2019-06-07T05:33:31.157Z,58.20
2019-06-07T05:36:01.851Z,58.26
2019-06-07T05:38:33.380Z,58.06
2019-06-07T05:41:03.549Z,57.68
2019-06-07T05:43:35.020Z,57.43
2019-06-07T05:46:05.566Z,57.57
2019-06-07T05:48:40.312Z,57.39
2019-06-07T05:51:08.810Z,57.11
2019-06-07T05:53:40.431Z,56.33
2019-06-07T05:56:11.704Z,56.24
2019-06-07T05:58:44.549Z,55.39
2019-06-07T06:01:42.311Z,55.53
2019-06-07T06:03:48.024Z,55.58
2019-06-07T06:06:17.849Z,55.54
2019-06-07T06:08:49.582Z,55.40
2019-06-07T06:11:19.824Z,55.13
2019-06-07T06:14:07.566Z,55.02
2019-06-07T06:16:23.875Z,54.94
2019-06-07T06:18:53.931Z,54.99
2019-06-07T06:21:23.997Z,54.91
2019-06-07T06:23:54.157Z,54.54
2019-06-07T06:26:24.150Z,54.21
2019-06-07T06:28:54.204Z,54.24
2019-06-07T06:31:24.542Z,54.23
2019-06-07T06:33:54.562Z,54.09
2019-06-07T06:36:24.579Z,54.06
2019-06-07T06:38:54.614Z,54.01
2019-06-07T06:41:24.607Z,53.76
2019-06-07T06:43:54.614Z,53.69
2019-06-07T06:46:38.155Z,53.11
2019-06-07T06:48:56.312Z,53.26
2019-06-07T06:51:26.312Z,52.95
2019-06-07T06:53:56.340Z,53.04
2019-06-07T06:56:26.328Z,53.12
2019-06-07T07:01:28.021Z,53.01
2019-06-07T07:04:11.569Z,52.71
2019-06-07T07:06:30.543Z,53.15
2019-06-07T07:09:01.833Z,52.49
2019-06-07T07:11:33.605Z,52.43
2019-06-07T07:14:03.594Z,52.01
2019-06-07T07:16:33.610Z,51.98
2019-06-07T07:19:03.668Z,51.57
2019-06-07T07:21:33.693Z,51.39
2019-06-07T07:24:20.372Z,51.07
2019-06-07T07:26:35.406Z,51.22
2019-06-07T07:29:06.130Z,51.10
2019-06-07T07:31:36.098Z,51.25
2019-06-07T07:34:31.876Z,50.24
2019-06-07T07:36:39.801Z,50.08
2019-06-07T07:39:09.670Z,50.04
2019-06-07T07:41:39.668Z,50.46
2019-06-07T07:44:10.013Z,50.71
2019-06-07T07:46:40.246Z,50.23
2019-06-07T07:49:10.253Z,49.52
2019-06-07T07:51:40.229Z,49.05
2019-06-07T07:54:11.366Z,48.89
2019-06-07T07:56:41.590Z,48.77
2019-06-07T07:59:11.608Z,48.63
2019-06-07T08:01:41.585Z,47.68
2019-06-07T08:04:11.643Z,47.93
2019-06-07T08:06:41.656Z,47.99
2019-06-07T08:09:11.675Z,47.36
2019-06-07T08:11:41.673Z,47.58
2019-06-07T08:14:11.689Z,47.67
2019-06-07T08:16:41.677Z,47.70
2019-06-07T08:19:13.097Z,47.46
2019-06-07T08:21:43.440Z,47.34
2019-06-07T08:24:13.451Z,46.65
2019-06-07T08:26:43.455Z,46.64
2019-06-07T08:29:13.394Z,46.27
2019-06-07T08:31:43.292Z,46.19
2019-06-07T08:34:13.299Z,46.08
2019-06-07T08:36:43.289Z,45.43
2019-06-07T08:39:13.326Z,45.77
2019-06-07T08:41:53.798Z,45.11
2019-06-07T08:44:23.471Z,44.67
2019-06-07T08:46:46.701Z,44.82
2019-06-07T08:49:16.701Z,44.73
2019-06-07T08:51:46.681Z,44.45
2019-06-07T08:54:22.896Z,44.90
2019-06-07T08:56:48.359Z,43.95
2019-06-07T08:59:18.332Z,44.31
2019-06-07T09:01:48.296Z,44.08
2019-06-07T09:04:18.322Z,43.62
2019-06-07T09:07:07.359Z,43.91
2019-06-07T09:09:19.993Z,43.24
2019-06-07T09:11:49.974Z,43.47
2019-06-07T09:14:19.989Z,43.57
2019-06-07T09:16:49.901Z,43.61
2019-06-07T09:19:19.985Z,42.65
2019-06-07T09:21:49.968Z,42.75
2019-06-07T09:24:20.055Z,42.88
2019-06-07T09:26:50.035Z,41.86
2019-06-07T09:29:20.741Z,41.18
2019-06-07T09:31:53.415Z,41.27
2019-06-07T09:34:22.533Z,41.63
2019-06-07T09:36:53.014Z,41.54
2019-06-07T09:39:23.063Z,41.58
2019-06-07T09:41:54.561Z,41.19
2019-06-07T09:44:26.441Z,41.35
2019-06-07T09:47:19.941Z,41.21
2019-06-07T09:49:32.559Z,41.19
2019-06-07T09:52:02.721Z,41.26
2019-06-07T09:55:03.810Z,40.44
2019-06-07T09:57:07.540Z,40.95
2019-06-07T09:59:34.882Z,41.50
2019-06-07T10:02:08.229Z,41.05
2019-06-07T10:04:36.566Z,40.89
2019-06-07T10:07:17.227Z,40.65
2019-06-07T10:12:10.306Z,40.41
2019-06-07T10:14:44.128Z,40.17
2019-06-07T10:17:12.162Z,39.90
2019-06-07T10:19:42.187Z,39.41
2019-06-07T10:22:13.486Z,40.43
2019-06-07T10:24:43.845Z,39.89
2019-06-07T10:27:13.884Z,40.04
2019-06-07T10:29:45.130Z,39.17
2019-06-07T10:32:15.156Z,39.19
2019-06-07T10:34:45.198Z,39.74
2019-06-07T10:37:15.895Z,38.90
2019-06-07T10:39:49.124Z,39.09
2019-06-07T10:42:18.068Z,38.75
2019-06-07T10:44:48.371Z,38.85
2019-06-07T10:47:18.384Z,38.87
2019-06-07T10:49:50.743Z,38.80
2019-06-07T10:52:20.855Z,38.11
2019-06-07T10:54:50.965Z,37.01
2019-06-07T10:57:21.170Z,36.77
2019-06-07T10:59:58.443Z,37.42
2019-06-07T11:02:29.591Z,36.38
2019-06-07T11:05:00.069Z,36.23
2019-06-07T11:07:30.434Z,36.15
2019-06-07T11:10:07.373Z,35.71
2019-06-07T11:12:34.764Z,35.18
2019-06-07T11:15:08.647Z,35.60
2019-06-07T11:17:39.115Z,35.27
2019-06-07T11:20:10.416Z,34.01
2019-06-07T11:22:40.795Z,33.97
2019-06-07T11:25:12.821Z,34.29
2019-06-07T11:27:43.753Z,34.69
2019-06-07T11:30:14.590Z,34.00
2019-06-07T11:32:44.620Z,34.45
2019-06-07T11:35:15.672Z,34.99
2019-06-07T11:37:45.719Z,35.22
2019-06-07T11:40:29.731Z,35.11
2019-06-07T11:42:47.697Z,34.50
2019-06-07T11:45:19.071Z,34.68
2019-06-07T11:47:49.532Z,34.04
2019-06-07T11:50:26.177Z,34.28
2019-06-07T11:53:02.910Z,34.25
2019-06-07T11:55:37.089Z,33.73
2019-06-07T11:58:16.074Z,33.14
2019-06-07T12:00:51.513Z,33.56
2019-06-07T12:03:28.066Z,34.48
2019-06-07T12:06:01.918Z,32.96
2019-06-07T12:08:33.032Z,33.30
2019-06-07T12:11:05.136Z,32.53
2019-06-07T12:13:37.397Z,33.53
2019-06-07T12:16:08.924Z,32.10
2019-06-07T12:18:39.018Z,31.47
2019-06-07T12:21:09.728Z,31.61
2019-06-07T12:23:41.963Z,32.75
2019-06-07T12:26:12.307Z,32.50
2019-06-07T12:28:42.875Z,32.40
2019-06-07T12:31:15.053Z,32.25
2019-06-07T12:33:47.942Z,31.73
2019-06-07T12:36:24.795Z,31.38
2019-06-07T12:38:57.237Z,32.14
2019-06-07T12:41:32.025Z,31.57
2019-06-07T12:44:02.481Z,31.24
2019-06-07T12:46:32.900Z,31.24
2019-06-07T12:49:04.471Z,30.90
2019-06-07T12:51:34.518Z,30.38
2019-06-07T12:54:05.371Z,30.65
2019-06-07T12:56:35.604Z,30.75
2019-06-07T12:59:06.499Z,29.47
2019-06-07T13:01:37.151Z,30.01
2019-06-07T13:04:07.319Z,29.87
2019-06-07T13:06:37.414Z,29.36
2019-06-07T13:09:10.410Z,29.63
2019-06-07T13:11:47.417Z,29.58
2019-06-07T13:14:20.065Z,28.69
2019-06-07T13:16:50.181Z,29.31
2019-06-07T13:19:22.078Z,28.66
2019-06-07T13:21:52.353Z,27.30
2019-06-07T13:24:22.875Z,27.36
2019-06-07T13:26:52.997Z,27.63
2019-06-07T13:29:23.073Z,28.05
2019-06-07T13:31:53.155Z,28.70
2019-06-07T13:34:24.292Z,27.17
2019-06-07T13:36:54.613Z,26.92
2019-06-07T13:39:27.811Z,27.66
2019-06-07T13:41:56.302Z,28.11
2019-06-07T13:44:26.412Z,28.00
2019-06-07T13:46:56.783Z,28.29
2019-06-07T13:49:27.835Z,28.31
2019-06-07T13:51:58.201Z,28.29
2019-06-07T13:54:29.599Z,28.25
2019-06-07T13:57:02.509Z,28.40
2019-06-07T13:59:32.032Z,28.85
2019-06-07T14:02:02.046Z,28.51
2019-06-07T14:04:32.235Z,28.80
2019-06-07T14:07:02.137Z,29.38
2019-06-07T14:09:32.674Z,28.36
2019-06-07T14:12:03.874Z,28.57
2019-06-07T14:14:33.937Z,28.14
2019-06-07T14:17:03.988Z,28.16
2019-06-07T14:19:34.383Z,28.52
2019-06-07T14:22:04.848Z,28.30
2019-06-07T14:24:35.712Z,28.81
2019-06-07T14:27:09.777Z,29.11
2019-06-07T14:29:41.925Z,28.05
2019-06-07T14:32:12.487Z,28.19
2019-06-07T14:34:45.162Z,28.84
2019-06-07T14:37:15.649Z,28.95
2019-06-07T14:39:45.977Z,29.22
2019-06-07T14:42:15.998Z,29.61
2019-06-07T14:44:45.902Z,29.19
2019-06-07T14:47:15.920Z,27.92
2019-06-07T14:49:45.893Z,28.39
2019-06-07T14:52:15.938Z,28.40
2019-06-07T14:54:46.494Z,28.32
2019-06-07T14:57:16.654Z,28.14
2019-06-07T14:59:46.694Z,27.44
2019-06-07T15:02:17.688Z,27.51
2019-06-07T15:04:48.903Z,27.71
2019-06-07T15:07:18.963Z,27.83
2019-06-07T15:09:49.506Z,27.69
2019-06-07T15:12:24.989Z,27.62
2019-06-07T15:14:53.114Z,28.04
2019-06-07T15:17:23.452Z,28.38
2019-06-07T15:19:53.470Z,28.46
2019-06-07T15:22:23.424Z,28.73
2019-06-07T15:24:54.295Z,28.05
2019-06-07T15:27:24.380Z,26.89
2019-06-07T15:29:54.346Z,27.74
2019-06-07T15:32:24.496Z,28.10
2019-06-07T15:34:54.806Z,28.38
2019-06-07T15:37:24.809Z,28.03
2019-06-07T15:39:54.787Z,29.03
2019-06-07T15:42:40.128Z,29.02
2019-06-07T15:44:56.899Z,28.96
2019-06-07T15:47:27.850Z,27.97
2019-06-07T15:50:00.876Z,28.11
2019-06-07T15:52:31.453Z,28.38
2019-06-07T15:55:01.912Z,28.76
2019-06-07T15:57:33.389Z,29.06
2019-06-07T16:00:05.092Z,29.05
2019-06-07T16:02:37.498Z,28.87
2019-06-07T16:05:08.032Z,28.96
2019-06-07T16:07:40.327Z,28.93
2019-06-07T16:10:11.494Z,29.22
2019-06-07T16:12:57.640Z,28.68
2019-06-07T16:15:15.301Z,29.30
2019-06-07T16:17:46.237Z,29.42
2019-06-07T16:20:16.982Z,29.69
2019-06-07T16:22:47.002Z,29.65
2019-06-07T16:25:17.234Z,30.41
2019-06-07T16:27:47.634Z,31.37
2019-06-07T16:30:21.131Z,31.37
2019-06-07T16:32:51.387Z,31.66
2019-06-07T16:35:21.992Z,31.41
2019-06-07T16:37:52.571Z,31.72
2019-06-07T16:40:23.042Z,31.70
2019-06-07T16:42:53.016Z,31.71
2019-06-07T16:45:23.124Z,32.06
2019-06-07T16:47:53.114Z,32.20
2019-06-07T16:50:23.547Z,32.32
2019-06-07T16:52:53.537Z,32.63
2019-06-07T16:55:23.655Z,32.26
2019-06-07T16:57:53.643Z,32.28
2019-06-07T17:00:25.838Z,32.68
2019-06-07T17:02:55.950Z,33.15
2019-06-07T17:05:25.960Z,33.30
2019-06-07T17:07:55.933Z,33.32
2019-06-07T17:10:25.944Z,33.33
2019-06-07T17:12:56.166Z,33.60
2019-06-07T17:15:26.217Z,33.22
2019-06-07T17:17:56.226Z,33.16
2019-06-07T17:20:26.205Z,32.90
2019-06-07T17:22:56.403Z,33.05
2019-06-07T17:25:26.377Z,33.38
2019-06-07T17:27:56.478Z,33.47
2019-06-07T17:30:26.626Z,33.90
2019-06-07T17:32:59.278Z,34.04
2019-06-07T17:35:28.695Z,34.01
2019-06-07T17:37:58.866Z,33.63
2019-06-07T17:40:28.893Z,33.64
2019-06-07T17:42:59.310Z,33.62
2019-06-07T17:45:29.282Z,33.59
2019-06-07T17:47:59.316Z,33.91
2019-06-07T17:50:29.273Z,33.86
2019-06-07T17:52:59.333Z,34.30
2019-06-07T17:55:29.686Z,34.61
2019-06-07T17:57:59.736Z,34.91
2019-06-07T18:00:35.351Z,35.35
2019-06-07T18:03:05.478Z,35.76
2019-06-07T18:05:35.462Z,36.15
2019-06-07T18:08:05.573Z,36.51
2019-06-07T18:10:39.767Z,37.11
2019-06-07T18:13:09.885Z,37.56
2019-06-07T18:15:42.294Z,37.93
2019-06-07T18:18:12.504Z,38.25
2019-06-07T18:20:45.041Z,38.49
2019-06-07T18:23:15.176Z,38.90
2019-06-07T18:25:46.312Z,39.11
2019-06-07T18:28:16.947Z,39.44
2019-06-07T18:30:46.934Z,39.68
2019-06-07T18:33:17.014Z,39.98
2019-06-07T18:35:47.169Z,40.40
2019-06-07T18:38:17.202Z,40.56
2019-06-07T18:40:47.270Z,41.06
2019-06-07T18:43:17.269Z,41.24
2019-06-07T18:45:47.416Z,41.58
2019-06-07T18:48:17.434Z,42.15
2019-06-07T18:50:48.628Z,42.07
2019-06-07T18:53:18.795Z,42.88
2019-06-07T18:55:49.884Z,43.37
2019-06-07T18:58:20.669Z,43.66
2019-06-07T19:00:51.430Z,44.42
2019-06-07T19:03:21.925Z,44.66
2019-06-07T19:05:52.209Z,44.92
2019-06-07T19:08:22.329Z,45.23
2019-06-07T19:10:52.683Z,45.50
2019-06-07T19:13:22.675Z,45.96
2019-06-07T19:15:53.369Z,46.10
2019-06-07T19:18:25.492Z,46.44
2019-06-07T19:20:56.424Z,47.30
2019-06-07T19:23:27.087Z,47.29
2019-06-07T19:25:58.308Z,48.30
2019-06-07T19:28:28.881Z,48.59
2019-06-07T19:30:59.173Z,48.50
2019-06-07T19:33:29.662Z,47.83
2019-06-07T19:36:01.757Z,48.16
2019-06-07T19:38:32.196Z,48.53
2019-06-07T19:41:18.990Z,48.78
2019-06-07T19:43:34.062Z,48.90
2019-06-07T19:46:04.033Z,49.05
2019-06-07T19:48:34.067Z,49.49
2019-06-07T19:51:04.090Z,49.61
2019-06-07T19:53:34.212Z,49.90
2019-06-07T19:56:04.199Z,49.83
2019-06-07T19:58:34.214Z,49.69
2019-06-07T20:01:05.395Z,50.09
2019-06-07T20:03:35.403Z,49.80
2019-06-07T20:06:05.383Z,49.68
2019-06-07T20:08:35.397Z,49.44
2019-06-07T20:11:06.650Z,49.58
2019-06-07T20:13:36.671Z,49.22
2019-06-07T20:16:06.828Z,49.42
2019-06-07T20:18:37.004Z,49.46
2019-06-07T20:21:06.996Z,49.49
2019-06-07T20:23:37.727Z,48.84
2019-06-07T20:26:08.860Z,45.77
2019-06-07T20:28:39.105Z,42.69
2019-06-07T20:31:09.156Z,40.79
2019-06-07T20:33:39.231Z,40.55
2019-06-07T20:36:09.217Z,40.36
2019-06-07T20:38:39.835Z,39.89
2019-06-07T20:41:09.774Z,40.03
2019-06-07T20:43:39.793Z,39.58
2019-06-07T20:46:10.151Z,38.77
2019-06-07T20:48:40.270Z,38.56
2019-06-07T20:51:10.259Z,38.08
2019-06-07T20:53:40.238Z,37.60
2019-06-07T20:56:10.333Z,37.46
2019-06-07T20:58:40.912Z,37.45
2019-06-07T21:01:10.904Z,38.13
2019-06-07T21:03:40.943Z,39.19
2019-06-07T21:06:10.940Z,40.61
2019-06-07T21:08:41.040Z,41.63
2019-06-07T21:11:11.028Z,43.25
2019-06-07T21:13:41.109Z,43.37
2019-06-07T21:16:11.089Z,44.73
2019-06-07T21:18:41.102Z,45.64
2019-06-07T21:21:11.098Z,45.94
2019-06-07T21:23:41.109Z,46.27
2019-06-07T21:26:11.179Z,46.46
2019-06-07T21:28:42.441Z,46.56
2019-06-07T21:31:12.513Z,47.50
2019-06-07T21:33:42.521Z,48.17
2019-06-07T21:36:12.500Z,48.37
2019-06-07T21:38:42.520Z,47.53
2019-06-07T21:41:12.693Z,47.55
2019-06-07T21:43:42.686Z,46.93
2019-06-07T21:46:19.986Z,46.74
2019-06-07T21:48:44.389Z,46.46
2019-06-07T21:51:14.458Z,46.25
2019-06-07T21:53:44.436Z,46.72
2019-06-07T21:56:14.446Z,46.41
2019-06-07T21:58:44.427Z,46.60
2019-06-07T22:01:17.115Z,46.67
2019-06-07T22:03:48.164Z,46.90
2019-06-07T22:06:18.236Z,47.31
2019-06-07T22:08:48.242Z,47.59
2019-06-07T22:11:19.221Z,47.62
2019-06-07T22:13:49.194Z,47.90
2019-06-07T22:16:28.231Z,47.77
2019-06-07T22:18:50.878Z,47.43
2019-06-07T22:21:20.885Z,47.65
2019-06-07T22:23:50.863Z,47.12
2019-06-07T22:26:20.849Z,47.07
2019-06-07T22:28:50.855Z,46.11
2019-06-07T22:31:20.754Z,45.58
2019-06-07T22:33:50.778Z,45.16
2019-06-07T22:36:20.819Z,44.82
2019-06-07T22:38:50.846Z,44.35
2019-06-07T22:41:20.829Z,44.26
2019-06-07T22:43:50.835Z,44.72
2019-06-07T22:46:35.884Z,44.25
2019-06-07T22:48:52.519Z,44.12
2019-06-07T22:51:22.523Z,44.05
2019-06-07T22:53:52.498Z,44.16
2019-06-07T22:56:27.331Z,44.40
2019-06-07T22:58:57.376Z,44.23
2019-06-07T23:01:27.457Z,44.01
2019-06-07T23:03:57.423Z,44.10
2019-06-07T23:06:27.512Z,44.17
2019-06-07T23:08:57.593Z,44.13
2019-06-07T23:11:27.490Z,44.25
2019-06-07T23:13:57.505Z,44.58
2019-06-07T23:16:27.544Z,44.06
2019-06-07T23:18:57.557Z,44.21
2019-06-07T23:21:27.532Z,44.51
2019-06-07T23:23:57.548Z,44.30
2019-06-07T23:26:27.528Z,44.46
2019-06-07T23:28:57.543Z,44.66
2019-06-07T23:31:27.492Z,44.67
2019-06-07T23:33:57.469Z,44.82
2019-06-07T23:36:27.481Z,44.70
2019-06-07T23:38:57.452Z,44.76
2019-06-07T23:41:27.466Z,45.01
2019-06-07T23:43:57.470Z,45.39
2019-06-07T23:46:27.441Z,45.17
2019-06-07T23:48:57.551Z,45.36
2019-06-07T23:51:27.449Z,45.27
2019-06-07T23:53:57.592Z,45.47
2019-06-07T23:56:27.569Z,45.54
2019-06-07T23:58:58.080Z,45.55
